Home > Products > Valid Products > TAF

000
FTUS43 KEAX 281100
TAFMKC
TAF
KMKC 281120Z 2812/2912 18010KT P6SM FEW250
     FM281400 21012G20KT P6SM SCT250
     FM282300 19009KT P6SM SKC=



000
FTUS43 KEAX 281100
TAFMCI
TAF
KMCI 281120Z 2812/2912 17012KT P6SM FEW250
     FM281500 21016G22KT P6SM SCT250
     FM282300 19010KT P6SM SKC=



000
FTUS43 KEAX 281100
TAFSTJ
TAF
KSTJ 281120Z 2812/2912 17010KT P6SM FEW250
     FM281500 21014G20KT P6SM SCT250
     FM282300 19009KT P6SM SKC=



000
FTUS43 KEAX 280500
TAFMKC
TAF
KMKC 280520Z 2806/2906 18008KT P6SM SKC
     FM281400 21012KT P6SM SCT250=



000
FTUS43 KEAX 280500
TAFSTJ
TAF
KSTJ 280520Z 2806/2906 16008KT P6SM SKC
     FM281500 20011KT P6SM SCT250=



000
FTUS43 KEAX 280500
TAFMCI
TAF
KMCI 280520Z 2806/2906 17012KT P6SM SKC
     FM281500 21015KT P6SM SCT250=



000
FTUS43 KEAX 272300
TAFMKC
TAF
KMKC 272320Z 2800/2824 13008KT P6SM SCT120
     FM280500 18010KT P6SM SKC
     FM281300 21012KT P6SM SCT250=



000
FTUS43 KEAX 272300
TAFSTJ
TAF
KSTJ 272320Z 2800/2824 13007KT P6SM SCT120
     FM280500 18008KT P6SM SKC
     FM281400 20011KT P6SM SCT250=



000
FTUS43 KEAX 272300
TAFMCI
TAF
KMCI 272320Z 2800/2824 14008KT P6SM SCT120
     FM280600 18012KT P6SM SKC
     FM281500 21015KT P6SM SCT250=



000
FTUS43 KEAX 272000 AAA
TAFSTJ
TAF AMD
KSTJ 272020Z 2720/2818 13005KT P6SM FEW150
     FM280900 18008KT P6SM SKC=



000
FTUS43 KEAX 272000 AAA
TAFMKC
TAF AMD
KMKC 272018Z 2720/2818 15005KT P6SM FEW150
     FM280900 18010KT P6SM SKC=



000
FTUS43 KEAX 272000 AAA
TAFMCI
TAF AMD
KMCI 272017Z 2720/2818 15008KT P6SM FEW150
     FM280900 18012KT P6SM SKC=



000
FTUS43 KEAX 271700
TAFMKC
TAF
KMKC 271720Z 2718/2818 VRB03KT P6SM BKN080
     FM280200 14008KT P6SM SCT120
     FM280900 18010KT P6SM FEW150=



000
FTUS43 KEAX 271700
TAFSTJ
TAF
KSTJ 271720Z 2718/2818 VRB06KT P6SM BKN080
     FM280200 14008KT P6SM SCT120
     FM280900 18008KT P6SM FEW150=



000
FTUS43 KEAX 271700
TAFMCI
TAF
KMCI 271720Z 2718/2818 VRB05KT P6SM BKN080
     FM280200 14010KT P6SM SCT120
     FM280900 18012KT P6SM FEW150=



000
FTUS43 KEAX 271500 AAB
TAFMKC
TAF AMD
KMKC 271518Z 2715/2812 36006KT P6SM SCT018 OVC080
     FM271600 VRB03KT P6SM FEW025 BKN080
     FM272100 14008KT P6SM SCT150=



000
FTUS43 KEAX 271500 AAB
TAFMCI
TAF AMD
KMCI 271500Z 2715/2812 36007KT P6SM SCT015 OVC080
     FM271600 VRB04KT P6SM FEW020 BKN080
     FM272100 14009KT P6SM SCT150=



000
FTUS43 KEAX 271400 AAA
TAFMKC
TAF AMD
KMKC 271421Z 2714/2812 36006KT P6SM OVC018
     FM271600 VRB03KT P6SM FEW025 BKN080
     FM272100 14008KT P6SM SCT150=



000
FTUS43 KEAX 271400 AAA
TAFMCI
TAF AMD
KMCI 271420Z 2714/2812 36007KT P6SM OVC015
     FM271600 VRB04KT P6SM FEW020 BKN080
     FM272100 14009KT P6SM SCT150=



000
FTUS43 KEAX 271100
TAFMCI
TAF
KMCI 271130Z 2712/2812 36007KT P6SM OVC015
      TEMPO 2713/2715 FEW015
     FM271500 VRB04KT P6SM FEW020 BKN080
     FM272100 14009KT P6SM SCT150=



000
FTUS43 KEAX 271100
TAFSTJ
TAF
KSTJ 271130Z 2712/2812 01007KT P6SM SCT015
      TEMPO 2712/2714 OVC015
     FM271500 VRB04KT P6SM FEW020 BKN080
     FM272100 14009KT P6SM SCT150=



000
FTUS43 KEAX 271100
TAFMKC
TAF
KMKC 271130Z 2712/2812 36006KT P6SM OVC018
      TEMPO 2713/2715 FEW018
     FM271500 VRB03KT P6SM FEW025 BKN080
     FM272100 14008KT P6SM SCT150=



000
FTUS43 KEAX 270500
TAFSTJ
TAF
KSTJ 270520Z 2706/2806 34009KT P6SM OVC015
     FM271500 VRB05KT P6SM SCT025 BKN080
     FM272100 13006KT P6SM SCT250=



000
FTUS43 KEAX 270500
TAFMCI
TAF
KMCI 270520Z 2706/2806 34009KT P6SM OVC015
     FM271500 VRB04KT P6SM SCT025 BKN080
     FM272100 13008KT P6SM SCT250=



000
FTUS43 KEAX 270500
TAFMKC
TAF
KMKC 270520Z 2706/2806 33008KT P6SM OVC018
     FM271500 VRB04KT P6SM SCT025 BKN080
     FM272100 13005KT P6SM SCT250=



000
FTUS43 KEAX 270100 AAA
TAFSTJ
TAF AMD
KSTJ 270115Z 2701/2724 33014KT P6SM OVC015
      TEMPO 2701/2703 33015G23KT
     FM271200 VRB04KT P6SM BKN080
     FM271900 13006KT P6SM SCT250=



000
FTUS43 KEAX 270100 AAA
TAFMCI
TAF AMD
KMCI 270115Z 2701/2724 33010KT P6SM OVC015
      TEMPO 2701/2703 33014G22KT
     FM271200 VRB04KT P6SM BKN080
     FM272000 14008KT P6SM SCT250=



000
FTUS43 KEAX 270100 AAA
TAFMKC
TAF AMD
KMKC 270115Z 2701/2724 33008KT P6SM OVC018
      TEMPO 2701/2703 32012G19KT
     FM271200 VRB04KT P6SM BKN080
     FM272000 13005KT P6SM SCT250=



000
FTUS43 KEAX 262300
TAFMKC
TAF
KMKC 262327Z 2700/2724 33008KT P6SM OVC018
      TEMPO 2700/2702 32012G19KT
     FM271200 VRB04KT P6SM BKN080
     FM272000 13005KT P6SM SCT250=



000
FTUS43 KEAX 262300
TAFMCI
TAF
KMCI 262327Z 2700/2724 33010KT P6SM OVC015
      TEMPO 2700/2701 33014G22KT
     FM271200 VRB04KT P6SM BKN080
     FM272000 14008KT P6SM SCT250=



000
FTUS43 KEAX 262300
TAFSTJ
TAF
KSTJ 262327Z 2700/2724 33014KT P6SM OVC015
     FM271200 VRB04KT P6SM BKN080
     FM271900 13006KT P6SM SCT250=



000
FTUS43 KEAX 262000 AAA
TAFSTJ
TAF AMD
KSTJ 262004Z 2620/2718 32020G30KT P6SM OVC015
     FM270000 33010KT P6SM BKN030
     FM270900 35005KT P6SM SCT050=



000
FTUS43 KEAX 262000 AAA
TAFMCI
TAF AMD
KMCI 262003Z 2620/2718 32015G30KT P6SM OVC015
     FM270000 33010KT P6SM BKN030
     FM270900 35005KT P6SM SCT050=



000
FTUS43 KEAX 262000 AAA
TAFMKC
TAF AMD
KMKC 262003Z 2620/2718 32015G25KT P6SM OVC015
     FM270000 33008KT P6SM BKN030
     FM270900 35005KT P6SM SCT050=



000
FTUS43 KEAX 261700
TAFMKC
TAF
KMKC 261720Z 2618/2718 32015G25KT P6SM BKN025
     FM270000 33008KT P6SM BKN030
     FM270900 35005KT P6SM SCT050=



000
FTUS43 KEAX 261700
TAFMCI
TAF
KMCI 261720Z 2618/2718 32015G30KT P6SM BKN025
     FM270000 33010KT P6SM BKN030
     FM270900 35005KT P6SM SCT050=



000
FTUS43 KEAX 261700
TAFSTJ
TAF
KSTJ 261720Z 2618/2718 32020G30KT P6SM BKN025
     FM270000 33010KT P6SM BKN030
     FM270900 35005KT P6SM SCT050=



000
FTUS43 KEAX 261100
TAFMCI
TAF
KMCI 261125Z 2612/2712 24010KT P6SM VCSH OVC035
     FM261500 31016G25KT P6SM OVC025
     FM270300 33011KT P6SM SCT025=



000
FTUS43 KEAX 261100
TAFMKC
TAF
KMKC 261125Z 2612/2712 24010KT P6SM VCSH OVC035
     FM261500 31015G25KT P6SM OVC025
     FM270300 33011KT P6SM SCT025=



000
FTUS43 KEAX 261100
TAFSTJ
TAF
KSTJ 261125Z 2612/2712 26011KT P6SM VCSH OVC035
     FM261400 31016G26KT P6SM OVC025
     FM270300 33010KT P6SM SCT025=



000
FTUS43 KEAX 260500
TAFMKC
TAF
KMKC 260520Z 2606/2706 19011KT P6SM OVC080
     FM260900 21008KT P6SM -RASN OVC035
     FM261400 29010KT P6SM OVC025
     FM261600 31015G24KT P6SM OVC025
     FM270000 33009KT P6SM OVC050=



000
FTUS43 KEAX 260500
TAFMCI
TAF
KMCI 260520Z 2606/2706 17012KT P6SM OVC080
     FM260800 20010KT P6SM -RASN OVC035
     FM261300 29012KT P6SM OVC025
     FM261600 32016G25KT P6SM OVC025
     FM270000 33011KT P6SM OVC050=



000
FTUS43 KEAX 260500
TAFSTJ
TAF
KSTJ 260520Z 2606/2706 17012KT P6SM OVC070
     FM260800 20011KT P6SM -RASN OVC035
     FM261200 29012KT P6SM OVC025
     FM261600 32020G30KT P6SM OVC025
     FM270000 33012KT P6SM OVC050=



000
FTUS43 KEAX 252300
TAFSTJ
TAF
KSTJ 252336Z 2600/2624 17009KT P6SM BKN070 OVC200
     FM260700 19010KT P6SM -RASN OVC025
     FM261100 29012KT P6SM -RASN OVC025
     FM261600 30021G31KT P6SM BKN035=



000
FTUS43 KEAX 252300
TAFMKC
TAF
KMKC 252336Z 2600/2624 18008KT P6SM BKN080 OVC200
     FM260800 21008KT P6SM -RASN OVC025
     FM261300 29010KT P6SM -RASN OVC025
     FM261600 30016G26KT P6SM BKN035=



000
FTUS43 KEAX 252300
TAFMCI
TAF
KMCI 252336Z 2600/2624 17009KT P6SM BKN080 OVC200
     FM260800 20010KT P6SM -RASN OVC025
     FM261300 29012KT P6SM -RASN OVC025
     FM261600 30017G27KT P6SM BKN035=



000
FTUS43 KEAX 251700
TAFMKC
TAF
KMKC 251726Z 2518/2618 25007KT P6SM SKC
     FM260100 18008KT P6SM BKN080 OVC200
     FM260900 24010KT P6SM -RASN OVC025
     FM261300 30015G22KT P6SM -RASN OVC025=



000
FTUS43 KEAX 251700
TAFSTJ
TAF
KSTJ 251726Z 2518/2618 24008KT P6SM SKC
     FM260000 17009KT P6SM BKN070
     FM260700 24011KT P6SM -RASN OVC025
     FM261200 30015G22KT P6SM -RASN OVC025=



000
FTUS43 KEAX 251700
TAFMCI
TAF
KMCI 251726Z 2518/2618 25008KT P6SM SKC
     FM260000 18009KT P6SM BKN080 OVC200
     FM260900 24011KT P6SM -RASN OVC025
     FM261300 30015G22KT P6SM -RASN OVC025=



000
FTUS43 KEAX 251700
TAFSTJ
TAF
KSTJ 251724Z 2518/2618 24008KT P6SM SKC
     FM250000 17009KT P6SM BKN070
     FM260700 24011KT P6SM -RASN OVC025
     FM261200 30015G22KT P6SM -RASN OVC025=



000
FTUS43 KEAX 251700
TAFMKC
TAF
KMKC 251724Z 2518/2618 25007KT P6SM SKC
     FM260100 18008KT P6SM BKN080 OVC200
     FM260900 24010KT P6SM -RASN OVC025
     FM261300 30015G22KT P6SM -RASN OVC025=



000
FTUS43 KEAX 251700
TAFMCI
TAF
KMCI 251724Z 2518/2618 25008KT P6SM SKC
     FM260000 18009KT P6SM BKN080 OVC200
     FM260900 24011KT P6SM -RASN OVC025
     FM261300 30015G22KT P6SM -RASN OVC025=



    US Dept of Commerce
    National Oceanic and Atmospheric Administration
    National Weather Service
    1325 East West Highway
    Silver Spring, MD 20910
    Page Author: NWS Internet Services Team
Disclaimer
Information Quality
Credits
Glossary
Privacy Policy
Freedom of Information Act (FOIA)
About Us
Career Opportunities